createdAt,value
2023-04-02T00:00:11.184Z,2.67
2023-04-02T00:03:22.367Z,2.58
2023-04-02T00:06:40.624Z,2.61
2023-04-02T00:09:43.400Z,2.62
2023-04-02T00:13:19.497Z,2.56
2023-04-02T00:16:24.271Z,2.63
2023-04-02T00:19:38.432Z,2.59
2023-04-02T00:22:44.678Z,2.59
2023-04-02T00:25:47.416Z,2.71
2023-04-02T00:28:51.372Z,2.62
2023-04-02T00:31:53.964Z,2.78
2023-04-02T00:34:56.533Z,2.75
2023-04-02T00:37:58.848Z,2.74
2023-04-02T00:41:05.914Z,2.68
2023-04-02T00:44:12.441Z,2.69
2023-04-02T00:47:20.387Z,2.62
2023-04-02T00:50:33.828Z,2.63
2023-04-02T00:53:36.380Z,2.68
2023-04-02T00:56:44.396Z,2.64
2023-04-02T01:00:03.765Z,2.50
2023-04-02T01:03:29.416Z,2.66
2023-04-02T01:06:37.341Z,2.51
2023-04-02T01:09:59.964Z,2.51
2023-04-02T01:13:30.448Z,2.55
2023-04-02T01:16:36.962Z,2.67
2023-04-02T01:20:02.132Z,2.58
2023-04-02T01:23:10.450Z,2.72
2023-04-02T01:26:27.666Z,2.60
2023-04-02T01:29:41.344Z,2.45
2023-04-02T01:32:43.968Z,2.56
2023-04-02T01:35:52.109Z,2.59
2023-04-02T01:39:06.845Z,2.37
2023-04-02T01:42:24.792Z,2.43
2023-04-02T01:45:27.244Z,2.46
2023-04-02T01:48:31.150Z,2.47
2023-04-02T01:51:34.420Z,2.51
2023-04-02T01:54:40.802Z,2.42
2023-04-02T01:57:44.710Z,2.37
2023-04-02T02:01:07.491Z,2.46
2023-04-02T02:04:14.035Z,2.41
2023-04-02T02:07:19.389Z,2.39
2023-04-02T02:10:34.061Z,2.38
2023-04-02T02:13:37.115Z,2.37
2023-04-02T02:16:42.004Z,2.54
2023-04-02T02:19:47.576Z,2.43
2023-04-02T02:22:51.233Z,2.17
2023-04-02T02:25:55.848Z,2.49
2023-04-02T02:28:58.952Z,2.43
2023-04-02T02:32:01.748Z,2.36
2023-04-02T02:35:11.790Z,2.33
2023-04-02T02:38:29.748Z,2.38
2023-04-02T02:41:44.029Z,2.29
2023-04-02T02:44:48.702Z,2.42
2023-04-02T02:47:53.502Z,2.44
2023-04-02T02:50:56.992Z,2.37
2023-04-02T02:54:03.718Z,2.42
2023-04-02T02:57:09.134Z,2.47
2023-04-02T03:00:13.197Z,2.33
2023-04-02T03:03:19.241Z,2.30
2023-04-02T03:06:25.320Z,2.31
2023-04-02T03:09:51.646Z,2.35
2023-04-02T03:13:19.991Z,2.45
2023-04-02T03:16:52.243Z,2.42
2023-04-02T03:19:59.585Z,2.46
2023-04-02T03:23:18.385Z,2.37
2023-04-02T03:26:32.127Z,2.38
2023-04-02T03:29:37.128Z,2.26
2023-04-02T03:32:41.294Z,2.15
2023-04-02T03:35:49.897Z,2.13
2023-04-02T03:38:57.731Z,2.26
2023-04-02T03:42:22.949Z,2.25
2023-04-02T03:45:28.743Z,2.02
2023-04-02T03:48:45.045Z,2.12
2023-04-02T03:51:50.425Z,1.91
2023-04-02T03:54:54.722Z,1.70
2023-04-02T03:58:17.481Z,1.89
2023-04-02T04:01:34.719Z,1.85
2023-04-02T04:04:40.928Z,1.85
2023-04-02T04:07:45.092Z,1.84
2023-04-02T04:10:52.236Z,1.88
2023-04-02T04:14:00.129Z,1.72
2023-04-02T04:17:13.998Z,1.82
2023-04-02T04:20:33.975Z,1.85
2023-04-02T04:23:41.557Z,1.40
2023-04-02T04:27:04.538Z,1.96
2023-04-02T04:30:18.427Z,1.92
2023-04-02T04:33:26.025Z,1.80
2023-04-02T04:36:41.567Z,1.86
2023-04-02T04:39:57.820Z,1.87
2023-04-02T04:43:06.410Z,1.89
2023-04-02T04:46:21.741Z,1.83
2023-04-02T04:49:42.400Z,1.77
2023-04-02T04:52:45.058Z,1.58
2023-04-02T04:55:50.834Z,1.58
2023-04-02T04:59:05.302Z,1.55
2023-04-02T05:02:18.978Z,1.62
2023-04-02T05:05:27.491Z,1.67
2023-04-02T05:08:35.058Z,1.71
2023-04-02T05:11:43.345Z,1.76
2023-04-02T05:14:52.220Z,1.67
2023-04-02T05:18:17.794Z,1.74
2023-04-02T05:21:28.130Z,1.65
2023-04-02T05:24:38.336Z,1.65
2023-04-02T05:27:47.375Z,1.69
2023-04-02T05:31:12.699Z,1.75
2023-04-02T05:34:24.632Z,1.65
2023-04-02T05:37:29.988Z,1.74
2023-04-02T05:40:41.312Z,1.88
2023-04-02T05:43:47.541Z,1.61
2023-04-02T05:46:55.446Z,1.64
2023-04-02T05:50:10.335Z,1.57
2023-04-02T05:53:26.118Z,1.53
2023-04-02T05:56:36.615Z,1.63
2023-04-02T05:59:45.643Z,1.56
2023-04-02T06:03:01.796Z,1.61
2023-04-02T06:06:14.577Z,1.62
2023-04-02T06:09:25.990Z,1.64
2023-04-02T06:12:40.046Z,1.81
2023-04-02T06:15:43.272Z,1.58
2023-04-02T06:18:54.206Z,1.72
2023-04-02T06:22:00.895Z,1.73
2023-04-02T06:25:18.781Z,1.84
2023-04-02T06:28:28.312Z,1.82
2023-04-02T06:31:37.495Z,1.76
2023-04-02T06:34:43.331Z,1.71
2023-04-02T06:37:52.288Z,1.83
2023-04-02T06:41:05.213Z,1.69
2023-04-02T06:44:35.818Z,1.87
2023-04-02T06:48:17.969Z,1.78
2023-04-02T06:51:25.114Z,1.65
2023-04-02T06:54:28.033Z,1.79
2023-04-02T06:57:35.986Z,1.81
2023-04-02T07:00:46.945Z,1.88
2023-04-02T07:03:56.801Z,1.86
2023-04-02T07:07:04.626Z,1.88
2023-04-02T07:10:13.098Z,2.05
2023-04-02T07:13:17.901Z,1.95
2023-04-02T07:16:25.793Z,1.99
2023-04-02T07:19:29.802Z,2.00
2023-04-02T07:22:34.468Z,1.97
2023-04-02T07:25:38.333Z,2.18
2023-04-02T07:28:40.955Z,1.92
2023-04-02T07:31:43.467Z,1.83
2023-04-02T07:34:46.155Z,1.96
2023-04-02T07:37:48.623Z,1.97
2023-04-02T07:40:51.194Z,2.06
2023-04-02T07:43:53.477Z,2.07
2023-04-02T07:46:56.374Z,1.90
2023-04-02T07:49:58.741Z,2.14
2023-04-02T07:53:01.491Z,1.97
2023-04-02T07:56:05.405Z,2.23
2023-04-02T07:59:07.914Z,2.09
2023-04-02T08:02:22.261Z,2.31
2023-04-02T08:05:24.728Z,2.35
2023-04-02T08:08:27.226Z,2.58
2023-04-02T08:11:31.553Z,2.72
2023-04-02T08:14:34.489Z,2.75
2023-04-02T08:17:37.043Z,2.69
2023-04-02T08:20:39.681Z,2.81
2023-04-02T08:23:43.132Z,2.65
2023-04-02T08:26:49.960Z,2.81
2023-04-02T08:29:52.529Z,3.05
2023-04-02T08:32:55.026Z,3.03
2023-04-02T08:35:57.662Z,3.18
2023-04-02T08:39:00.040Z,3.17
2023-04-02T08:42:30.699Z,3.55
2023-04-02T08:45:56.610Z,3.79
2023-04-02T08:49:02.058Z,3.88
2023-04-02T08:52:04.527Z,3.97
2023-04-02T08:55:22.840Z,4.14
2023-04-02T08:58:43.126Z,4.39
2023-04-02T09:02:07.591Z,4.49
2023-04-02T09:05:18.956Z,4.47
2023-04-02T09:08:24.876Z,4.49
2023-04-02T09:11:36.961Z,4.54
2023-04-02T09:15:00.617Z,4.66
2023-04-02T09:18:32.353Z,4.72
2023-04-02T09:21:37.994Z,4.74
2023-04-02T09:24:40.375Z,4.59
2023-04-02T09:27:42.701Z,4.70
2023-04-02T09:31:13.102Z,4.48
2023-04-02T09:34:32.967Z,4.39
2023-04-02T09:37:35.446Z,4.30
2023-04-02T09:41:06.015Z,4.11
2023-04-02T09:44:27.184Z,3.95
2023-04-02T09:47:32.829Z,4.01
2023-04-02T09:50:35.521Z,3.83
2023-04-02T09:53:39.946Z,3.75
2023-04-02T09:57:23.972Z,3.89
2023-04-02T10:00:41.663Z,3.97
2023-04-02T10:03:44.505Z,4.05
2023-04-02T10:06:50.916Z,4.10
2023-04-02T10:10:18.787Z,4.17
2023-04-02T10:13:40.545Z,4.21
2023-04-02T10:16:48.463Z,4.16
2023-04-02T10:19:57.475Z,4.13
2023-04-02T10:22:59.881Z,4.31
2023-04-02T10:26:30.093Z,4.26
2023-04-02T10:29:50.445Z,4.31
2023-04-02T10:33:02.302Z,4.35
2023-04-02T10:36:23.054Z,4.39
2023-04-02T10:39:39.122Z,4.53
2023-04-02T10:43:09.159Z,4.67
2023-04-02T10:46:22.950Z,4.83
2023-04-02T10:49:51.745Z,4.76
2023-04-02T10:52:59.903Z,4.90
2023-04-02T10:56:05.766Z,4.84
2023-04-02T10:59:19.303Z,4.84
2023-04-02T11:02:32.181Z,4.73
2023-04-02T11:05:38.175Z,4.85
2023-04-02T11:08:43.073Z,4.77
2023-04-02T11:11:47.138Z,4.66
2023-04-02T11:14:49.391Z,4.75
2023-04-02T11:17:52.292Z,4.73
2023-04-02T11:21:00.592Z,4.81
2023-04-02T11:24:03.674Z,5.08
2023-04-02T11:27:12.184Z,5.28
2023-04-02T11:30:21.282Z,5.49
2023-04-02T11:33:39.177Z,5.69
2023-04-02T11:36:53.051Z,5.74
2023-04-02T11:40:00.163Z,5.85
2023-04-02T11:43:47.932Z,6.04
2023-04-02T11:46:51.660Z,6.03
2023-04-02T11:50:01.594Z,6.15
2023-04-02T11:53:13.700Z,6.10
2023-04-02T11:56:35.577Z,6.11
2023-04-02T12:00:08.041Z,5.95
2023-04-02T12:04:07.916Z,6.21
2023-04-02T12:07:28.060Z,6.31
2023-04-02T12:10:34.882Z,6.18
2023-04-02T12:13:39.987Z,6.27
2023-04-02T12:16:42.445Z,5.97
2023-04-02T12:20:25.412Z,5.82
2023-04-02T12:23:31.548Z,6.12
2023-04-02T12:26:38.183Z,5.93
2023-04-02T12:29:40.943Z,5.85
2023-04-02T12:32:43.346Z,5.73
2023-04-02T12:35:47.855Z,5.81
2023-04-02T12:38:59.313Z,5.48
2023-04-02T12:42:01.839Z,5.70
2023-04-02T12:45:09.448Z,5.71
2023-04-02T12:48:12.633Z,5.90
2023-04-02T12:51:16.240Z,5.67
2023-04-02T12:54:20.790Z,5.76
2023-04-02T12:57:26.295Z,6.00
2023-04-02T13:00:30.717Z,5.86
2023-04-02T13:03:33.975Z,5.87
2023-04-02T13:06:37.004Z,6.11
2023-04-02T13:09:50.595Z,6.18
2023-04-02T13:12:57.524Z,5.73
2023-04-02T13:16:29.537Z,6.00
2023-04-02T13:19:33.601Z,5.63
2023-04-02T13:22:35.910Z,5.68
2023-04-02T13:25:38.481Z,5.73
2023-04-02T13:28:41.177Z,5.51
2023-04-02T13:31:43.753Z,5.41
2023-04-02T13:34:46.665Z,5.53
2023-04-02T13:37:49.554Z,5.62
2023-04-02T13:40:51.895Z,5.55
2023-04-02T13:43:55.661Z,5.97
2023-04-02T13:46:59.077Z,5.84
2023-04-02T13:50:01.576Z,5.72
2023-04-02T13:53:10.454Z,5.63
2023-04-02T13:56:13.102Z,5.90
2023-04-02T13:59:16.257Z,5.51
2023-04-02T14:02:21.728Z,5.60
2023-04-02T14:05:42.200Z,5.67
2023-04-02T14:09:11.586Z,5.66
2023-04-02T14:12:26.399Z,5.67
2023-04-02T14:16:07.173Z,5.65
2023-04-02T14:19:24.879Z,5.32
2023-04-02T14:22:57.622Z,5.28
2023-04-02T14:26:39.828Z,5.28
2023-04-02T14:29:48.762Z,5.51
2023-04-02T14:32:59.500Z,5.80
2023-04-02T14:36:24.127Z,6.31
2023-04-02T14:39:43.513Z,6.64
2023-04-02T14:43:15.974Z,6.30
2023-04-02T14:46:18.433Z,5.93
2023-04-02T14:49:30.521Z,5.49
2023-04-02T14:52:34.607Z,5.39
2023-04-02T14:55:49.172Z,5.52
2023-04-02T14:59:03.618Z,5.04
2023-04-02T15:02:28.706Z,5.10
2023-04-02T15:05:49.561Z,5.00
2023-04-02T15:09:08.982Z,4.69
2023-04-02T15:12:23.461Z,4.74
2023-04-02T15:15:41.379Z,4.94
2023-04-02T15:18:43.809Z,4.77
2023-04-02T15:22:09.633Z,4.71
2023-04-02T15:25:38.388Z,4.93
2023-04-02T15:28:48.032Z,4.55
2023-04-02T15:31:52.429Z,4.70
2023-04-02T15:35:22.174Z,4.81
2023-04-02T15:38:43.010Z,4.68
2023-04-02T15:42:19.460Z,4.58
2023-04-02T15:45:33.935Z,4.82
2023-04-02T15:48:48.473Z,4.88
2023-04-02T15:52:21.312Z,4.95
2023-04-02T15:55:23.847Z,4.97
2023-04-02T15:58:55.076Z,5.09
2023-04-02T16:02:33.708Z,4.73
2023-04-02T16:06:01.060Z,4.62
2023-04-02T16:09:21.970Z,4.50
2023-04-02T16:12:26.445Z,4.35
2023-04-02T16:15:38.111Z,3.95
2023-04-02T16:18:48.205Z,3.67
2023-04-02T16:22:10.975Z,3.51
2023-04-02T16:25:22.960Z,3.37
2023-04-02T16:28:28.538Z,3.32
2023-04-02T16:32:04.693Z,3.24
2023-04-02T16:39:20.574Z,3.14
2023-04-02T16:42:37.032Z,2.86
2023-04-02T16:45:48.786Z,2.87
2023-04-02T16:49:28.628Z,2.91
2023-04-02T16:52:39.256Z,2.99
2023-04-02T16:55:44.512Z,2.66
2023-04-02T16:59:05.104Z,2.74
2023-04-02T17:02:32.832Z,2.68
2023-04-02T17:06:09.408Z,2.60
2023-04-02T17:09:11.657Z,2.38
2023-04-02T17:12:23.740Z,2.33
2023-04-02T17:15:42.071Z,2.16
2023-04-02T17:18:48.528Z,2.19
2023-04-02T17:21:54.018Z,2.07
2023-04-02T17:25:02.640Z,1.83
2023-04-02T17:28:10.358Z,1.93
2023-04-02T17:31:26.001Z,1.99
2023-04-02T17:34:28.434Z,1.87
2023-04-02T17:37:43.250Z,1.79
2023-04-02T17:41:01.452Z,1.76
2023-04-02T17:44:42.491Z,1.60
2023-04-02T17:48:09.722Z,1.52
2023-04-02T17:51:30.086Z,1.52
2023-04-02T17:55:10.097Z,1.47
2023-04-02T17:58:15.652Z,1.30
2023-04-02T18:01:24.110Z,1.35
2023-04-02T18:04:54.647Z,1.33
2023-04-02T18:08:19.232Z,1.28
2023-04-02T18:11:21.958Z,1.36
2023-04-02T18:14:30.223Z,1.31
2023-04-02T18:17:44.679Z,1.29
2023-04-02T18:20:58.825Z,1.27
2023-04-02T18:24:03.823Z,1.18
2023-04-02T18:27:08.849Z,1.21
2023-04-02T18:30:19.958Z,1.22
2023-04-02T18:33:29.293Z,1.22
2023-04-02T18:36:31.609Z,1.28
2023-04-02T18:39:37.715Z,1.18
2023-04-02T18:43:03.410Z,1.05
2023-04-02T18:46:18.848Z,1.09
2023-04-02T18:49:24.846Z,1.13
2023-04-02T18:52:27.107Z,1.04
2023-04-02T18:55:29.640Z,0.85
2023-04-02T18:58:34.929Z,1.06
2023-04-02T19:01:38.617Z,0.95
2023-04-02T19:04:40.995Z,1.00
2023-04-02T19:07:43.714Z,0.85
2023-04-02T19:10:46.909Z,0.94
2023-04-02T19:13:51.540Z,0.95
2023-04-02T19:17:02.948Z,0.90
2023-04-02T19:20:11.470Z,0.85
2023-04-02T19:23:13.971Z,0.85
2023-04-02T19:26:17.276Z,0.75
2023-04-02T19:29:22.551Z,0.80
2023-04-02T19:32:27.882Z,0.86
2023-04-02T19:35:33.006Z,0.63
2023-04-02T19:38:47.332Z,0.78
2023-04-02T19:41:58.543Z,0.70
2023-04-02T19:45:00.751Z,0.67
2023-04-02T19:48:14.815Z,0.75
2023-04-02T19:51:16.983Z,0.60
2023-04-02T19:54:19.414Z,0.65
2023-04-02T19:57:21.731Z,0.57
2023-04-02T20:00:24.080Z,0.69
2023-04-02T20:03:26.398Z,0.57
2023-04-02T20:06:30.128Z,0.42
2023-04-02T20:09:32.327Z,0.56
2023-04-02T20:12:34.690Z,0.50
2023-04-02T20:15:37.047Z,0.53
2023-04-02T20:18:39.656Z,0.51
2023-04-02T20:21:42.178Z,0.46
2023-04-02T20:24:44.400Z,0.51
2023-04-02T20:27:46.777Z,0.40
2023-04-02T20:30:50.462Z,0.38
2023-04-02T20:33:59.442Z,0.51
2023-04-02T20:37:01.922Z,0.36
2023-04-02T20:40:04.906Z,0.40
2023-04-02T20:43:07.134Z,0.38
2023-04-02T20:46:11.644Z,0.33
2023-04-02T20:49:14.437Z,0.37
2023-04-02T20:52:16.844Z,0.31
2023-04-02T20:55:19.073Z,0.33
2023-04-02T20:58:21.223Z,0.28
2023-04-02T21:01:24.570Z,0.27
2023-04-02T21:04:28.142Z,0.34
2023-04-02T21:07:30.487Z,0.36
2023-04-02T21:10:32.666Z,0.26
2023-04-02T21:13:38.825Z,0.22
2023-04-02T21:16:41.959Z,0.21
2023-04-02T21:19:44.226Z,0.34
2023-04-02T21:22:46.475Z,0.23
2023-04-02T21:25:58.675Z,0.17
2023-04-02T21:29:00.907Z,0.13
2023-04-02T21:32:11.116Z,0.16
2023-04-02T21:35:20.648Z,0.12
2023-04-02T21:38:22.814Z,0.01
2023-04-02T21:41:26.680Z,0.16
2023-04-02T21:44:28.972Z,-0.04
2023-04-02T21:47:31.424Z,-0.13
2023-04-02T21:50:33.753Z,0.02
2023-04-02T21:53:36.136Z,-0.01
2023-04-02T21:56:41.838Z,-0.05
2023-04-02T21:59:44.095Z,-0.03
2023-04-02T22:02:46.381Z,-0.10
2023-04-02T22:05:48.679Z,-0.03
2023-04-02T22:08:55.455Z,-0.24
2023-04-02T22:12:01.956Z,-0.30
2023-04-02T22:15:04.339Z,-0.27
2023-04-02T22:18:06.607Z,-0.25
2023-04-02T22:21:08.927Z,-0.18
2023-04-02T22:24:13.103Z,-0.29
2023-04-02T22:27:15.997Z,-0.48
2023-04-02T22:30:18.414Z,-0.33
2023-04-02T22:33:21.043Z,-0.40
2023-04-02T22:36:23.907Z,-0.40
2023-04-02T22:39:26.243Z,-0.34
2023-04-02T22:42:28.428Z,-0.49
2023-04-02T22:45:30.627Z,-0.44
2023-04-02T22:48:33.086Z,-0.53
2023-04-02T22:51:35.385Z,-0.47
2023-04-02T22:54:37.702Z,-0.57
2023-04-02T22:57:39.882Z,-0.58
2023-04-02T23:00:42.211Z,-0.35
2023-04-02T23:03:44.462Z,-0.64
2023-04-02T23:06:48.022Z,-0.90
2023-04-02T23:09:50.549Z,-0.83
2023-04-02T23:12:52.721Z,-0.69
2023-04-02T23:15:55.056Z,-0.75
2023-04-02T23:18:57.760Z,-0.79
2023-04-02T23:21:59.957Z,-0.45
2023-04-02T23:25:02.148Z,-0.67
2023-04-02T23:28:04.848Z,-0.47
2023-04-02T23:31:08.566Z,-0.52
2023-04-02T23:34:11.154Z,-0.67
2023-04-02T23:37:13.370Z,-0.94
2023-04-02T23:40:15.691Z,-0.73
2023-04-02T23:43:17.813Z,-0.79
2023-04-02T23:46:20.284Z,-0.66
2023-04-02T23:49:22.543Z,-0.67
2023-04-02T23:52:24.741Z,-0.94
2023-04-02T23:55:26.890Z,-0.76
2023-04-02T23:58:29.142Z,-0.93
